^^
Station Historical Data
Daily Summary for April 19, 2021 Units:  English    Metric   Both
Daily Weekly Monthly Yearly
  High: Low: Average:
Temperature: 53.7 °F 37.8 °F 47.8 °F
Dew Point: 44.9 °F 28.9 °F 39 °F
Humidity: 85% 57% 72%
Wind Speed: 13mph 0mph 6.1mph
Wind Gust: 17mph - -
Wind- - WSW
Pressure: 29.85 in 29.65 in -
Precipitation: 0.03 in    
 
 
Tabular Data for April 19, 2021
Time Temperature Dew Point Pressure Wind Wind Speed Wind Gust Humidity Rainfall Rate (Hourly) solar
00:00 46 °F 38.5 °F 29.79 in SSE 2 mph 2 mph 75% 0.00 in 0 W/m2
00:05 46.1 °F 38.6 °F 29.79 in WSW 2 mph 2 mph 75% 0.00 in 0 W/m2
00:10 46.1 °F 38.6 °F 29.78 in ESE 2 mph 2 mph 75% 0.00 in 0 W/m2
00:15 45.9 °F 38.4 °F 29.78 in SE 2 mph 2 mph 75% 0.00 in 0 W/m2
00:20 45.8 °F 38.3 °F 29.78 in South 2 mph 2 mph 75% 0.00 in 0 W/m2
00:25 45.7 °F 38.2 °F 29.78 in South 2 mph 2 mph 75% 0.00 in 0 W/m2
00:30 45.6 °F 37.8 °F 29.78 in South 2 mph 2 mph 74% 0.00 in 0 W/m2
00:35 45.6 °F 38.1 °F 29.78 in ESE 2 mph 2 mph 75% 0.00 in 0 W/m2
00:40 45.6 °F 38.5 °F 29.78 in SE 2 mph 2 mph 76% 0.00 in 0 W/m2
00:45 45.5 °F 38 °F 29.78 in SE 2 mph 2 mph 75% 0.00 in 0 W/m2
00:50 45.4 °F 38.3 °F 29.78 in SE 2 mph 3 mph 76% 0.00 in 0 W/m2
00:55 45.3 °F 38.2 °F 29.78 in ESE 2 mph 3 mph 76% 0.00 in 0 W/m2
01:00 45.4 °F 38.3 °F 29.77 in SSE 2 mph 2 mph 76% 0.00 in 0 W/m2
01:05 45.4 °F 38.3 °F 29.77 in SE 2 mph 3 mph 76% 0.00 in 0 W/m2
01:10 45.4 °F 38.6 °F 29.77 in ESE 2 mph 3 mph 77% 0.00 in 0 W/m2
01:15 45.4 °F 38.9 °F 29.77 in West 2 mph 3 mph 78% 0.00 in 0 W/m2
01:20 45.4 °F 38.6 °F 29.77 in ESE 2 mph 2 mph 77% 0.00 in 0 W/m2
01:30 45.6 °F 38.5 °F 29.77 in South 2 mph 3 mph 76% 0.00 in 0 W/m2
01:35 45.6 °F 38.8 °F 29.77 in SE 2 mph 3 mph 77% 0.00 in 0 W/m2
01:45 45.5 °F 38.7 °F 29.76 in SW 2 mph 2 mph 77% 0.00 in 0 W/m2
01:50 45.5 °F 38.7 °F 29.76 in SE 2 mph 2 mph 77% 0.00 in 0 W/m2
02:00 45.6 °F 38.8 °F 29.76 in SW 1 mph 1 mph 77% 0.00 in 0 W/m2
02:05 45.8 °F 39 °F 29.76 in South 1 mph 1 mph 77% 0.00 in 0 W/m2
02:10 46 °F 39.2 °F 29.76 in South 1 mph 4 mph 77% 0.00 in 0 W/m2
02:15 46.2 °F 39.7 °F 29.76 in West 1 mph 4 mph 78% 0.00 in 0 W/m2
02:20 46.4 °F 39.9 °F 29.76 in North 1 mph 1 mph 78% 0.00 in 0 W/m2
02:25 46.5 °F 40 °F 29.76 in NNW 1 mph 1 mph 78% 0.00 in 0 W/m2
02:30 46.5 °F 40.3 °F 29.75 in NNW 1 mph 1 mph 79% 0.00 in 0 W/m2
02:35 46.5 °F 40.7 °F 29.75 in NNW 1 mph 1 mph 80% 0.00 in 0 W/m2
02:40 46.7 °F 40.9 °F 29.75 in Calm   2 mph 80% 0.00 in 0 W/m2
02:45 47.1 °F 42.5 °F 29.75 in WNW 1 mph 2 mph 84% 0.00 in 0 W/m2
02:50 48 °F 43.7 °F 29.75 in SSW 1 mph 1 mph 85% 0.00 in 0 W/m2
02:55 48.6 °F 43.4 °F 29.75 in SSE 1 mph 2 mph 82% 0.00 in 0 W/m2
03:00 49 °F 42.8 °F 29.75 in SW 1 mph 2 mph 79% 0.00 in 0 W/m2
03:05 49.4 °F 42.8 °F 29.74 in SSW 2 mph 3 mph 78% 0.00 in 0 W/m2
03:20 50 °F 43.4 °F 29.74 in SSW 3 mph 3 mph 78% 0.00 in 0 W/m2
03:25 49.9 °F 43.3 °F 29.74 in SW 2 mph 3 mph 78% 0.00 in 0 W/m2
03:30 49.8 °F 43.2 °F 29.74 in SSW 3 mph 5 mph 78% 0.00 in 0 W/m2
03:35 49.7 °F 43.5 °F 29.74 in SSW 4 mph 5 mph 79% 0.00 in 0 W/m2
03:40 49.8 °F 43.9 °F 29.74 in SW 4 mph 4 mph 80% 0.00 in 0 W/m2
03:45 49.8 °F 44.2 °F 29.74 in SSW 4 mph 4 mph 81% 0.00 in 0 W/m2
03:55 49.6 °F 44.3 °F 29.74 in SSW 4 mph 4 mph 82% 0.00 in 0 W/m2
04:05 49.2 °F 43.6 °F 29.73 in SE 2 mph 3 mph 81% 0.00 in 0 W/m2
04:15 48 °F 42.1 °F 29.73 in SSW 2 mph 2 mph 80% 0.00 in 0 W/m2
04:30 47 °F 41.5 °F 29.73 in NW 2 mph 2 mph 81% 0.00 in 0 W/m2
04:35 47 °F 41.1 °F 29.73 in NNE 2 mph 3 mph 80% 0.00 in 0 W/m2
04:45 46.9 °F 40.4 °F 29.73 in North 2 mph 2 mph 78% 0.00 in 0 W/m2
04:50 46.5 °F 39.7 °F 29.72 in NNW 2 mph 2 mph 77% 0.00 in 0 W/m2
04:55 46.3 °F 39.5 °F 29.72 in NW 2 mph 2 mph 77% 0.00 in 0 W/m2
05:00 46.1 °F 39.3 °F 29.72 in NW 2 mph 2 mph 77% 0.00 in 0 W/m2
05:05 46 °F 39.2 °F 29.72 in NNW 2 mph 3 mph 77% 0.00 in 0 W/m2
05:10 45.9 °F 39.4 °F 29.72 in NNW 2 mph 4 mph 78% 0.00 in 0 W/m2
05:15 45.9 °F 39.1 °F 29.72 in NW 3 mph 4 mph 77% 0.00 in 0 W/m2
05:20 45.9 °F 39.1 °F 29.72 in NNW 2 mph 3 mph 77% 0.00 in 0 W/m2
05:25 45.9 °F 39.1 °F 29.71 in NNW 2 mph 3 mph 77% 0.00 in 0 W/m2
05:40 46 °F 39.2 °F 29.71 in North 3 mph 3 mph 77% 0.00 in 0 W/m2
05:45 46.1 °F 39.6 °F 29.71 in West 2 mph 4 mph 78% 0.00 in 0 W/m2
05:55 46 °F 39.2 °F 29.70 in WNW 3 mph 7 mph 77% 0.00 in 0 W/m2
06:00 46.1 °F 39 °F 29.70 in ESE 3 mph 3 mph 76% 0.00 in 0 W/m2
06:05 46.2 °F 39.4 °F 29.70 in NNE 3 mph 3 mph 77% 0.00 in 0 W/m2
06:10 46.3 °F 39.5 °F 29.70 in NNW 3 mph 3 mph 77% 0.00 in 0 W/m2
06:15 46.3 °F 39.1 °F 29.70 in East 3 mph 3 mph 76% 0.00 in 0 W/m2
06:20 46.5 °F 39.3 °F 29.70 in NNW 3 mph 3 mph 76% 0.00 in 0 W/m2
06:25 46.5 °F 38.7 °F 29.70 in NW 3 mph 3 mph 74% 0.00 in 0 W/m2
06:30 46.6 °F 38.8 °F 29.70 in North 3 mph 3 mph 74% 0.00 in 0 W/m2
06:35 46.7 °F 39.2 °F 29.70 in North 3 mph 3 mph 75% 0.00 in 0 W/m2
06:40 46.7 °F 38.9 °F 29.70 in NNW 3 mph 4 mph 74% 0.00 in 7 W/m2
06:45 46.8 °F 39.3 °F 29.70 in NNW 3 mph 4 mph 75% 0.00 in 11 W/m2
06:50 46.7 °F 38.9 °F 29.70 in NNW 3 mph 3 mph 74% 0.00 in 18 W/m2
06:55 46.7 °F 39.2 °F 29.70 in NE 3 mph 3 mph 75% 0.00 in 21 W/m2
07:00 46.5 °F 38.7 °F 29.70 in NNW 3 mph 3 mph 74% 0.00 in 26 W/m2
07:05 46.5 °F 39.7 °F 29.70 in NW 3 mph 3 mph 77% 0.00 in 40 W/m2
07:10 47 °F 39.1 °F 29.70 in NNE 3 mph 5 mph 74% 0.00 in 35 W/m2
07:15 47.5 °F 39.6 °F 29.70 in NNE 3 mph 5 mph 74% 0.00 in 32 W/m2
07:20 48 °F 40.1 °F 29.70 in North 3 mph 4 mph 74% 0.00 in 30 W/m2
07:25 48.2 °F 39.9 °F 29.69 in NNW 3 mph 4 mph 73% 0.00 in 32 W/m2
07:30 48.5 °F 39.9 °F 29.69 in NNE 3 mph 4 mph 72% 0.00 in 35 W/m2
07:35 48.8 °F 40.2 °F 29.69 in ENE 4 mph 4 mph 72% 0.00 in 37 W/m2
07:40 49.1 °F 40.5 °F 29.69 in NW 4 mph 4 mph 72% 0.00 in 37 W/m2
07:45 49.2 °F 40.2 °F 29.69 in NNE 4 mph 4 mph 71% 0.00 in 39 W/m2
07:50 49.3 °F 40.7 °F 29.69 in NNE 4 mph 4 mph 72% 0.00 in 46 W/m2
07:55 49.6 °F 40.9 °F 29.69 in SSE 4 mph 7 mph 72% 0.00 in 79 W/m2
08:00 49.9 °F 40.9 °F 29.69 in South 4 mph 9 mph 71% 0.00 in 90 W/m2
08:05 50.2 °F 41.2 °F 29.68 in NNE 4 mph 9 mph 71% 0.00 in 58 W/m2
08:10 50.3 °F 40.9 °F 29.68 in NNE 5 mph 5 mph 70% 0.00 in 58 W/m2
08:15 50.5 °F 41.4 °F 29.68 in North 4 mph 5 mph 71% 0.00 in 130 W/m2
08:20 50.7 °F 41.6 °F 29.68 in East 4 mph 4 mph 71% 0.00 in 211 W/m2
08:25 51 °F 41.6 °F 29.68 in South 5 mph 6 mph 70% 0.00 in 227 W/m2
08:30 51.1 °F 41.7 °F 29.68 in South 6 mph 6 mph 70% 0.00 in 243 W/m2
08:35 51.2 °F 41.7 °F 29.67 in North 5 mph 6 mph 70% 0.00 in 260 W/m2
08:40 51.4 °F 41.9 °F 29.67 in NNE 5 mph 5 mph 70% 0.00 in 320 W/m2
08:45 51.7 °F 41.9 °F 29.67 in West 5 mph 6 mph 69% 0.00 in 403 W/m2
08:50 52 °F 41.8 °F 29.67 in ESE 6 mph 6 mph 68% 0.00 in 216 W/m2
08:55 52 °F 42.1 °F 29.67 in WNW 6 mph 6 mph 69% 0.00 in 176 W/m2
09:00 52 °F 41.8 °F 29.66 in SSW 6 mph 6 mph 68% 0.00 in 167 W/m2
09:15 52.4 °F 42.1 °F 29.66 in WNW 5 mph 10 mph 68% 0.00 in 162 W/m2
09:20 52.5 °F 42.2 °F 29.66 in SE 7 mph 9 mph 68% 0.00 in 151 W/m2
09:25 52.6 °F 41.6 °F 29.66 in South 9 mph 9 mph 66% 0.00 in 158 W/m2
09:30 52.7 °F 42 °F 29.66 in SSW 10 mph 11 mph 67% 0.00 in 167 W/m2
09:35 52.8 °F 42.1 °F 29.66 in SW 11 mph 13 mph 67% 0.00 in 193 W/m2
09:40 52.8 °F 41.7 °F 29.66 in SSW 12 mph 15 mph 66% 0.00 in 220 W/m2
09:45 52.8 °F 42.1 °F 29.66 in SSW 12 mph 15 mph 67% 0.00 in 253 W/m2
09:50 52.8 °F 41.7 °F 29.66 in SSW 12 mph 16 mph 66% 0.00 in 255 W/m2
09:55 52.8 °F 41.7 °F 29.65 in SSW 13 mph 16 mph 66% 0.00 in 248 W/m2
10:00 52.8 °F 41.7 °F 29.65 in South 12 mph 12 mph 66% 0.00 in 301 W/m2
10:05 52.9 °F 41.8 °F 29.65 in SW 11 mph 12 mph 66% 0.00 in 346 W/m2
10:10 53 °F 42.3 °F 29.65 in SW 11 mph 14 mph 67% 0.00 in 304 W/m2
10:15 53 °F 41.5 °F 29.65 in South 11 mph 14 mph 65% 0.00 in 327 W/m2
10:20 53.1 °F 42.4 °F 29.66 in SW 10 mph 11 mph 67% 0.00 in 325 W/m2
10:25 53.1 °F 42.4 °F 29.66 in SW 10 mph 12 mph 67% 0.00 in 338 W/m2
10:30 53.2 °F 42.1 °F 29.65 in SW 12 mph 12 mph 66% 0.00 in 401 W/m2
10:35 53.5 °F 42.8 °F 29.66 in SW 11 mph 12 mph 67% 0.00 in 429 W/m2
10:40 53.7 °F 43.4 °F 29.66 in SW 9 mph 9 mph 68% 0.00 in 436 W/m2
10:45 53.7 °F 43 °F 29.65 in WSW 9 mph 10 mph 67% 0.00 in 415 W/m2
10:50 53.6 °F 42.9 °F 29.65 in SW 10 mph 12 mph 67% 0.00 in 353 W/m2
10:55 53.4 °F 42.7 °F 29.65 in SSW 10 mph 12 mph 67% 0.00 in 301 W/m2
11:00 53.5 °F 42.4 °F 29.65 in SSW 10 mph 10 mph 66% 0.00 in 301 W/m2
11:05 53.5 °F 42.4 °F 29.66 in SW 9 mph 10 mph 66% 0.00 in 253 W/m2
11:10 53.6 °F 43.3 °F 29.66 in South 7 mph 7 mph 68% 0.00 in 251 W/m2
11:15 53.5 °F 43.6 °F 29.66 in SW 5 mph 7 mph 69% 0.00 in 232 W/m2
11:20 53.6 °F 44.4 °F 29.66 in SW 4 mph 4 mph 71% 0.00 in 213 W/m2
11:25 53.5 °F 44.3 °F 29.66 in West 4 mph 4 mph 71% 0.00 in 206 W/m2
11:30 53.5 °F 44.7 °F 29.66 in WSW 4 mph 5 mph 72% 0.00 in 241 W/m2
11:35 53.5 °F 44.7 °F 29.65 in West 4 mph 5 mph 72% 0.00 in 278 W/m2
11:40 53.5 °F 44.3 °F 29.65 in SW 4 mph 4 mph 71% 0.00 in 244 W/m2
11:45 53.6 °F 44.8 °F 29.65 in SSW 4 mph 4 mph 72% 0.00 in 285 W/m2
11:50 53.7 °F 44.9 °F 29.65 in WSW 4 mph 4 mph 72% 0.00 in 276 W/m2
11:55 53.7 °F 44.9 °F 29.65 in WNW 5 mph 5 mph 72% 0.00 in 195 W/m2
12:00 53.6 °F 44.4 °F 29.65 in West 6 mph 6 mph 71% 0.00 in 149 W/m2
12:05 53.5 °F 43.6 °F 29.65 in West 6 mph 6 mph 69% 0.00 in 153 W/m2
12:20 52.7 °F 43.2 °F 29.66 in WSW 6 mph 11 mph 70% 0.00 in 109 W/m2
12:30 52 °F 44 °F 29.66 in WSW 6 mph 7 mph 74% 0.00 in 139 W/m2
12:35 51.5 °F 43.8 °F 29.66 in WSW 7 mph 11 mph 75% 0.00 in 156 W/m2
12:40 51.1 °F 43.4 °F 29.66 in SW 7 mph 7 mph 75% 0.00 in 134 W/m2
12:45 50.9 °F 43.9 °F 29.66 in SW 7 mph 7 mph 77% 0.00 in 134 W/m2
12:50 50.6 °F 43.7 °F 29.66 in NW 6 mph 6 mph 77% 0.00 in 142 W/m2
12:55 50.4 °F 43.5 °F 29.66 in West 6 mph 10 mph 77% 0.00 in 120 W/m2
13:00 50.1 °F 43.5 °F 29.66 in West 7 mph 7 mph 78% 0.00 in 134 W/m2
13:05 49.8 °F 43.2 °F 29.66 in WSW 7 mph 9 mph 78% 0.00 in 121 W/m2
13:10 49.6 °F 43.4 °F 29.66 in WNW 8 mph 9 mph 79% 0.00 in 90 W/m2
13:15 49.2 °F 43.3 °F 29.66 in WNW 7 mph 9 mph 80% 0.00 in 69 W/m2
13:20 48.9 °F 43.6 °F 29.66 in WNW 6 mph 6 mph 82% 0.00 in 79 W/m2
13:25 48.7 °F 43.5 °F 29.66 in WNW 5 mph 6 mph 82% 0.00 in 72 W/m2
13:30 48.5 °F 43.6 °F 29.66 in SW 6 mph 8 mph 83% 0.00 in 65 W/m2
13:35 48.4 °F 43.8 °F 29.66 in WSW 7 mph 9 mph 84% 0.00 in 91 W/m2
13:40 48.3 °F 43.7 °F 29.66 in SSW 6 mph 9 mph 84% 0.00 in 100 W/m2
13:50 48.4 °F 44.1 °F 29.66 in WSW 7 mph 7 mph 85% 0.00 in 77 W/m2
14:05 48.7 °F 44.4 °F 29.66 in West 8 mph 9 mph 85% 0.00 in 113 W/m2
14:10 48.4 °F 44.1 °F 29.67 in WSW 8 mph 8 mph 85% 0.00 in 100 W/m2
14:15 48.1 °F 43.2 °F 29.67 in SW 8 mph 15 mph 83% 0.00 in 81 W/m2
14:20 48.2 °F 43.9 °F 29.67 in SW 8 mph 8 mph 85% 0.00 in 84 W/m2
14:25 48.2 °F 43.6 °F 29.67 in WSW 7 mph 8 mph 84% 0.00 in 97 W/m2
14:30 48.1 °F 43.2 °F 29.67 in West 7 mph 7 mph 83% 0.00 in 188 W/m2
14:40 48.3 °F 43.1 °F 29.67 in West 8 mph 8 mph 82% 0.00 in 100 W/m2
14:50 48.4 °F 43.2 °F 29.67 in SW 7 mph 10 mph 82% 0.00 in 40 W/m2
14:55 48.3 °F 43.4 °F 29.67 in WNW 8 mph 10 mph 83% 0.00 in 63 W/m2
15:00 48.2 °F 43.3 °F 29.68 in West 8 mph 8 mph 83% 0.00 in 47 W/m2
15:05 48.1 °F 42.9 °F 29.68 in NW 8 mph 12 mph 82% 0.00 in 49 W/m2
15:10 48 °F 42.4 °F 29.68 in West 8 mph 8 mph 81% 0.00 in 65 W/m2
15:15 47.8 °F 41.3 °F 29.68 in West 9 mph 11 mph 78% 0.00 in 81 W/m2
15:20 47.8 °F 41.3 °F 29.68 in SW 9 mph 9 mph 78% 0.00 in 104 W/m2
15:25 47.9 °F 42 °F 29.68 in WNW 9 mph 9 mph 80% 0.00 in 165 W/m2
15:35 48.2 °F 42 °F 29.68 in SSW 9 mph 9 mph 79% 0.00 in 200 W/m2
15:40 48.4 °F 42.2 °F 29.69 in WSW 8 mph 10 mph 79% 0.00 in 283 W/m2
15:45 48.3 °F 42.1 °F 29.69 in SW 8 mph 10 mph 79% 0.00 in 223 W/m2
15:50 48.5 °F 42 °F 29.69 in WSW 8 mph 8 mph 78% 0.00 in 128 W/m2
15:55 48.1 °F 41.2 °F 29.69 in West 7 mph 12 mph 77% 0.00 in 274 W/m2
16:00 48.1 °F 40.9 °F 29.69 in West 8 mph 8 mph 76% 0.00 in 390 W/m2
16:05 48.3 °F 40.4 °F 29.69 in WSW 8 mph 8 mph 74% 0.00 in 366 W/m2
16:10 48.5 °F 39.9 °F 29.69 in West 9 mph 9 mph 72% 0.00 in 401 W/m2
16:15 48.6 °F 40 °F 29.69 in WSW 8 mph 13 mph 72% 0.00 in 334 W/m2
16:20 48.6 °F 40 °F 29.69 in NNE 9 mph 9 mph 72% 0.00 in 343 W/m2
16:25 48.8 °F 39.8 °F 29.69 in SW 9 mph 9 mph 71% 0.00 in 438 W/m2
16:30 48.7 °F 39.4 °F 29.69 in SW 10 mph 10 mph 70% 0.00 in 487 W/m2
16:45 49.1 °F 40.8 °F 29.70 in SW 9 mph 10 mph 73% 0.00 in 459 W/m2
16:50 48.8 °F 39.8 °F 29.70 in WSW 9 mph 9 mph 71% 0.00 in 559 W/m2
16:55 48.8 °F 39.8 °F 29.70 in West 8 mph 11 mph 71% 0.00 in 316 W/m2
17:00 48.5 °F 38.8 °F 29.70 in West 9 mph 10 mph 69% 0.00 in 258 W/m2
17:05 48.2 °F 38.9 °F 29.70 in WNW 9 mph 10 mph 70% 0.00 in 345 W/m2
17:10 47.9 °F 38.6 °F 29.71 in WSW 9 mph 9 mph 70% 0.00 in 220 W/m2
17:15 47.8 °F 39.2 °F 29.71 in WSW 9 mph 9 mph 72% 0.00 in 223 W/m2
17:20 47.8 °F 38.8 °F 29.70 in West 9 mph 9 mph 71% 0.00 in 390 W/m2
17:25 48.2 °F 38.9 °F 29.71 in West 9 mph 9 mph 70% 0.00 in 322 W/m2
17:30 48 °F 39.4 °F 29.71 in SW 9 mph 9 mph 72% 0.00 in 255 W/m2
17:35 47.9 °F 37.8 °F 29.71 in WSW 9 mph 13 mph 68% 0.00 in 179 W/m2
17:45 48 °F 38.7 °F 29.71 in West 8 mph 10 mph 70% 0.00 in 406 W/m2
17:55 48.5 °F 38.8 °F 29.71 in WNW 9 mph 17 mph 69% 0.00 in 315 W/m2
18:00 48.2 °F 37.8 °F 29.72 in WSW 8 mph 13 mph 67% 0.00 in 148 W/m2
18:05 48 °F 38.3 °F 29.72 in WSW 8 mph 13 mph 69% 0.00 in 169 W/m2
18:10 48.2 °F 37.8 °F 29.72 in WSW 8 mph 8 mph 67% 0.00 in 381 W/m2
18:15 48.2 °F 37.8 °F 29.72 in West 8 mph 9 mph 67% 0.00 in 253 W/m2
18:20 48.1 °F 37.3 °F 29.72 in West 9 mph 10 mph 66% 0.00 in 343 W/m2
18:25 48.3 °F 36.3 °F 29.72 in WNW 8 mph 13 mph 63% 0.00 in 390 W/m2
18:35 48.2 °F 37 °F 29.73 in West 8 mph 13 mph 65% 0.00 in 104 W/m2
18:40 48 °F 36.4 °F 29.73 in West 8 mph 9 mph 64% 0.00 in 86 W/m2
18:45 47.8 °F 35.4 °F 29.73 in WSW 8 mph 12 mph 62% 0.00 in 81 W/m2
19:05 47.6 °F 34.4 °F 29.74 in NW 8 mph 8 mph 60% 0.00 in 102 W/m2
19:15 47.5 °F 34.7 °F 29.74 in North 9 mph 11 mph 61% 0.00 in 58 W/m2
19:20 47.1 °F 33.9 °F 29.74 in NW 9 mph 14 mph 60% 0.00 in 56 W/m2
19:25 46.8 °F 33.6 °F 29.74 in West 8 mph 8 mph 60% 0.00 in 70 W/m2
19:30 46.7 °F 33.5 °F 29.74 in WNW 8 mph 8 mph 60% 0.00 in 79 W/m2
19:35 46.4 °F 33.3 °F 29.74 in WSW 9 mph 10 mph 60% 0.00 in 67 W/m2
19:40 46.2 °F 33.5 °F 29.75 in West 9 mph 10 mph 61% 0.00 in 54 W/m2
19:45 46 °F 33.3 °F 29.75 in NNW 8 mph 8 mph 61% 0.00 in 49 W/m2
19:50 45.9 °F 32.8 °F 29.75 in West 7 mph 12 mph 60% 0.00 in 33 W/m2
19:55 45.6 °F 32.1 °F 29.75 in NW 8 mph 16 mph 59% 0.00 in 23 W/m2
20:00 45.4 °F 31.5 °F 29.75 in NW 9 mph 9 mph 58% 0.00 in 16 W/m2
20:05 45.3 °F 31.4 °F 29.75 in WSW 8 mph 13 mph 58% 0.00 in 14 W/m2
20:10 45.2 °F 30.9 °F 29.75 in WSW 8 mph 15 mph 57% 0.00 in 11 W/m2
20:15 45.1 °F 30.8 °F 29.75 in WNW 9 mph 15 mph 57% 0.00 in 9 W/m2
20:20 45 °F 31.5 °F 29.76 in West 8 mph 10 mph 59% 0.00 in 7 W/m2
20:25 44.9 °F 31 °F 29.76 in WNW 7 mph 14 mph 58% 0.00 in 0 W/m2
20:30 44.8 °F 30.9 °F 29.76 in WNW 8 mph 13 mph 58% 0.00 in 0 W/m2
20:35 44.6 °F 30.3 °F 29.76 in WNW 9 mph 13 mph 57% 0.00 in 0 W/m2
20:40 44.5 °F 30.2 °F 29.76 in WNW 9 mph 9 mph 57% 0.00 in 0 W/m2
20:45 44.5 °F 30.2 °F 29.76 in West 8 mph 9 mph 57% 0.00 in 0 W/m2
20:50 44.3 °F 30.9 °F 29.77 in NW 8 mph 9 mph 59% 0.00 in 0 W/m2
20:55 44.3 °F 31.3 °F 29.77 in WNW 8 mph 9 mph 60% 0.00 in 0 W/m2
21:00 44.1 °F 31.1 °F 29.78 in NW 8 mph 8 mph 60% 0.00 in 0 W/m2
21:05 44.1 °F 30.3 °F 29.78 in West 9 mph 10 mph 58% 0.00 in 0 W/m2
21:10 44 °F 30.2 °F 29.78 in West 9 mph 9 mph 58% 0.00 in 0 W/m2
21:15 43.9 °F 29.6 °F 29.78 in WSW 9 mph 9 mph 57% 0.00 in 0 W/m2
21:20 43.9 °F 30.9 °F 29.79 in WNW 8 mph 8 mph 60% 0.00 in 0 W/m2
21:25 43.8 °F 30.8 °F 29.79 in WNW 7 mph 8 mph 60% 0.00 in 0 W/m2
21:30 43.8 °F 30.8 °F 29.80 in NW 7 mph 10 mph 60% 0.00 in 0 W/m2
21:35 43.7 °F 31.1 °F 29.80 in NW 7 mph 10 mph 61% 0.00 in 0 W/m2
21:40 43.5 °F 31.3 °F 29.80 in NW 7 mph 9 mph 62% 0.00 in 0 W/m2
21:50 43.3 °F 31.5 °F 29.80 in West 8 mph 8 mph 63% 0.00 in 0 W/m2
21:55 43.1 °F 31.4 °F 29.81 in WNW 8 mph 8 mph 63% 0.00 in 0 W/m2
22:00 42.9 °F 30.8 °F 29.81 in WNW 8 mph 11 mph 62% 0.00 in 0 W/m2
22:05 42.8 °F 31.1 °F 29.81 in West 9 mph 11 mph 63% 0.00 in 0 W/m2
22:10 42.7 °F 31.4 °F 29.82 in WNW 9 mph 9 mph 64% 0.00 in 0 W/m2
22:15 42.6 °F 31.3 °F 29.81 in West 8 mph 9 mph 64% 0.00 in 0 W/m2
22:20 42.5 °F 31.6 °F 29.81 in WSW 8 mph 12 mph 65% 0.00 in 0 W/m2
22:25 42.3 °F 31 °F 29.82 in North 8 mph 12 mph 64% 0.00 in 0 W/m2
22:30 42 °F 30.7 °F 29.82 in WSW 9 mph 16 mph 64% 0.00 in 0 W/m2
22:35 41.8 °F 30.1 °F 29.82 in NNW 9 mph 16 mph 63% 0.00 in 0 W/m2
22:40 41.6 °F 31.1 °F 29.82 in NNW 9 mph 9 mph 66% 0.00 in 0 W/m2
22:45 41.3 °F 32.6 °F 29.82 in WNW 10 mph 11 mph 71% 0.00 in 0 W/m2
22:50 40.9 °F 32.2 °F 29.83 in NNW 12 mph 12 mph 71% 0.00 in 0 W/m2
22:55 40.3 °F 31.6 °F 29.83 in NW 11 mph 12 mph 71% 0.00 in 0 W/m2
23:00 40 °F 31.4 °F 29.83 in West 9 mph 10 mph 71% 0.00 in 0 W/m2
23:20 39.2 °F 30.6 °F 29.84 in WNW 7 mph 17 mph 71% 0.00 in 0 W/m2
23:25 39 °F 30.4 °F 29.84 in West 7 mph 17 mph 71% 0.00 in 0 W/m2
23:35 38.6 °F 29.7 °F 29.84 in NNW 7 mph 14 mph 70% 0.00 in 0 W/m2
23:40 38.4 °F 29.5 °F 29.84 in West 8 mph 13 mph 70% 0.00 in 0 W/m2
23:50 38 °F 29.4 °F 29.84 in WNW 9 mph 10 mph 71% 0.00 in 0 W/m2
23:55 37.8 °F 28.9 °F 29.85 in West 9 mph 10 mph 70% 0.00 in 0 W/m2
Sand Point, Michigan, USA
Compliments of Weather Underground - 2 mb